Time,TemperatureF,DewpointF,PressureIn,WindDirection,WindDirectionDegrees,WindSpeedMPH,WindSpeedGustMPH,Humidity,HourlyPrecipIn,Conditions,Clouds,dailyrainin,SolarRadiationWatts/m^2,SoftwareType,DateUTC
2013-05-29 00:22:00,52.0,50.0,-100.00,East,94,10.0,17.0,92,0.00,,,0.29,0.000000,,2013-05-29 10:22:00,
2013-05-29 00:32:00,52.0,50.0,-100.00,East,94,10.0,17.0,92,0.00,,,0.29,0.000000,,2013-05-29 10:32:00,
2013-05-29 00:42:00,52.0,50.0,-100.00,East,94,10.0,17.0,92,0.00,,,0.29,0.000000,,2013-05-29 10:42:00,
2013-05-29 00:52:00,52.0,50.0,-100.00,East,94,10.0,17.0,92,0.00,,,0.29,0.000000,,2013-05-29 10:52:00,
2013-05-29 01:21:00,51.0,49.0,-100.00,ESE,114,10.0,18.0,94,0.00,,,0.29,0.000000,,2013-05-29 11:21:00,
2013-05-29 01:32:00,51.0,49.0,-100.00,ESE,114,10.0,18.0,94,0.00,,,0.29,0.000000,,2013-05-29 11:32:00,
2013-05-29 01:42:00,51.0,49.0,-100.00,ESE,114,10.0,18.0,94,0.00,,,0.29,0.000000,,2013-05-29 11:42:00,
2013-05-29 01:51:00,51.0,49.0,-100.00,ESE,114,10.0,18.0,94,0.00,,,0.29,0.000000,,2013-05-29 11:51:00,
2013-05-29 02:21:00,52.0,49.0,-100.00,ESE,106,9.0,15.0,91,0.00,,,0.29,0.000000,,2013-05-29 12:21:00,
2013-05-29 02:32:00,52.0,49.0,-100.00,ESE,106,9.0,15.0,91,0.00,,,0.29,0.000000,,2013-05-29 12:32:00,
2013-05-29 02:42:00,52.0,49.0,-100.00,ESE,106,9.0,15.0,91,0.00,,,0.29,0.000000,,2013-05-29 12:42:00,
2013-05-29 02:51:00,52.0,49.0,-100.00,ESE,106,9.0,15.0,91,0.00,,,0.29,0.000000,,2013-05-29 12:51:00,
2013-05-29 03:21:00,51.0,49.0,-100.00,East,100,11.0,17.0,94,0.00,,,0.29,0.000000,,2013-05-29 13:21:00,
2013-05-29 03:31:00,51.0,49.0,-100.00,East,100,11.0,17.0,94,0.00,,,0.29,0.000000,,2013-05-29 13:31:00,
2013-05-29 03:42:00,51.0,49.0,-100.00,East,100,11.0,17.0,94,0.00,,,0.29,0.000000,,2013-05-29 13:42:00,
2013-05-29 03:52:00,51.0,49.0,-100.00,East,100,11.0,17.0,94,0.00,,,0.29,0.000000,,2013-05-29 13:52:00,
2013-05-29 04:21:00,51.0,50.0,-100.00,ESE,113,10.0,18.0,96,0.00,,,0.29,0.000000,,2013-05-29 14:21:00,
2013-05-29 04:32:00,51.0,50.0,-100.00,ESE,113,10.0,18.0,96,0.00,,,0.29,0.000000,,2013-05-29 14:32:00,
2013-05-29 04:41:00,51.0,50.0,-100.00,ESE,113,10.0,18.0,96,0.00,,,0.29,0.000000,,2013-05-29 14:41:00,
2013-05-29 04:51:00,51.0,50.0,-100.00,ESE,113,10.0,18.0,96,0.00,,,0.29,0.000000,,2013-05-29 14:51:00,
2013-05-29 05:21:00,50.0,49.0,-100.00,ESE,106,4.0,16.0,96,0.00,,,0.29,0.000000,,2013-05-29 15:21:00,
2013-05-29 05:32:00,50.0,49.0,-100.00,ESE,106,4.0,16.0,96,0.00,,,0.29,0.000000,,2013-05-29 15:32:00,
2013-05-29 05:42:00,50.0,49.0,-100.00,ESE,106,4.0,16.0,96,0.00,,,0.29,0.000000,,2013-05-29 15:42:00,
2013-05-29 05:53:00,50.0,49.0,-100.00,ESE,106,4.0,16.0,96,0.00,,,0.29,0.000000,,2013-05-29 15:53:00,
2013-05-29 06:22:00,50.0,49.0,-100.00,SE,125,8.0,13.0,97,0.00,,,0.29,2.000000,,2013-05-29 16:22:00,
2013-05-29 06:32:00,50.0,49.0,-100.00,SE,125,8.0,13.0,97,0.00,,,0.29,2.000000,,2013-05-29 16:32:00,
2013-05-29 06:42:00,50.0,49.0,-100.00,SE,125,8.0,13.0,97,0.00,,,0.29,2.000000,,2013-05-29 16:42:00,
2013-05-29 06:52:00,50.0,49.0,-100.00,SE,125,8.0,13.0,97,0.00,,,0.29,2.000000,,2013-05-29 16:52:00,
2013-05-29 07:22:00,51.0,50.0,-100.00,SE,128,8.0,16.0,97,0.00,,,0.29,84.000000,,2013-05-29 17:22:00,
2013-05-29 07:32:00,51.0,50.0,-100.00,SE,128,8.0,16.0,97,0.00,,,0.29,84.000000,,2013-05-29 17:32:00,
2013-05-29 07:42:00,51.0,50.0,-100.00,SE,128,8.0,16.0,97,0.00,,,0.29,84.000000,,2013-05-29 17:42:00,
2013-05-29 07:52:00,51.0,50.0,-100.00,SE,128,8.0,16.0,97,0.00,,,0.29,84.000000,,2013-05-29 17:52:00,
2013-05-29 08:22:00,56.0,55.0,-100.00,ESE,116,12.0,18.0,95,0.00,,,0.29,334.000000,,2013-05-29 18:22:00,
2013-05-29 08:32:00,56.0,55.0,-100.00,ESE,116,12.0,18.0,95,0.00,,,0.29,334.000000,,2013-05-29 18:32:00,
2013-05-29 08:42:00,56.0,55.0,-100.00,ESE,116,12.0,18.0,95,0.00,,,0.29,334.000000,,2013-05-29 18:42:00,
2013-05-29 08:51:00,56.0,55.0,-100.00,ESE,116,12.0,18.0,95,0.00,,,0.29,334.000000,,2013-05-29 18:51:00,
2013-05-29 09:21:00,62.0,55.0,-100.00,East,99,10.0,16.0,77,0.00,,,0.29,764.000000,,2013-05-29 19:21:00,
2013-05-29 09:32:00,62.0,55.0,-100.00,East,99,10.0,16.0,77,0.00,,,0.29,764.000000,,2013-05-29 19:32:00,
2013-05-29 09:44:00,62.0,55.0,-100.00,East,99,10.0,16.0,77,0.00,,,0.29,764.000000,,2013-05-29 19:44:00,
2013-05-29 09:52:00,62.0,55.0,-100.00,East,99,10.0,16.0,77,0.00,,,0.29,764.000000,,2013-05-29 19:52:00,
2013-05-29 10:22:00,65.0,55.0,-100.00,East,97,11.0,19.0,70,0.00,,,0.29,1006.000000,,2013-05-29 20:22:00,
2013-05-29 10:32:00,65.0,55.0,-100.00,East,97,11.0,19.0,70,0.00,,,0.29,1006.000000,,2013-05-29 20:32:00,
2013-05-29 10:42:00,65.0,55.0,-100.00,East,97,11.0,19.0,70,0.00,,,0.29,1006.000000,,2013-05-29 20:42:00,
2013-05-29 10:52:00,65.0,55.0,-100.00,East,97,11.0,19.0,70,0.00,,,0.29,1006.000000,,2013-05-29 20:52:00,
2013-05-29 11:22:00,68.0,54.0,-100.00,East,99,10.0,19.0,62,0.00,,,0.29,1147.000000,,2013-05-29 21:22:00,
2013-05-29 11:33:00,68.0,54.0,-100.00,East,99,10.0,19.0,62,0.00,,,0.29,1147.000000,,2013-05-29 21:33:00,
2013-05-29 11:43:00,68.0,54.0,-100.00,East,99,10.0,19.0,62,0.00,,,0.29,1147.000000,,2013-05-29 21:43:00,
2013-05-29 11:53:00,68.0,54.0,-100.00,East,99,10.0,19.0,62,0.00,,,0.29,1147.000000,,2013-05-29 21:53:00,
2013-05-29 12:23:00,64.0,57.0,-100.00,WNW,301,11.0,20.0,77,0.00,,,0.29,894.000000,,2013-05-29 22:23:00,
2013-05-29 12:33:00,64.0,57.0,-100.00,WNW,301,11.0,20.0,77,0.00,,,0.29,894.000000,,2013-05-29 22:33:00,
2013-05-29 12:42:00,64.0,57.0,-100.00,WNW,301,11.0,20.0,77,0.00,,,0.29,894.000000,,2013-05-29 22:42:00,
2013-05-29 12:53:00,64.0,57.0,-100.00,WNW,301,11.0,20.0,77,0.00,,,0.29,894.000000,,2013-05-29 22:53:00,
2013-05-29 13:21:00,63.0,57.0,-100.00,WNW,300,12.0,21.0,80,0.00,,,0.29,550.000000,,2013-05-29 23:21:00,
2013-05-29 13:33:00,63.0,57.0,-100.00,WNW,300,12.0,21.0,80,0.00,,,0.29,550.000000,,2013-05-29 23:33:00,
2013-05-29 13:42:00,63.0,57.0,-100.00,WNW,300,12.0,21.0,80,0.00,,,0.29,550.000000,,2013-05-29 23:42:00,
2013-05-29 13:52:00,63.0,57.0,-100.00,WNW,300,12.0,21.0,80,0.00,,,0.29,550.000000,,2013-05-29 23:52:00,
2013-05-29 14:21:00,60.0,56.0,-100.00,NW,310,8.0,18.0,86,0.02,,,0.31,137.000000,,2013-05-30 00:21:00,
2013-05-29 14:31:00,60.0,56.0,-100.00,NW,310,8.0,18.0,86,0.02,,,0.31,137.000000,,2013-05-30 00:31:00,
2013-05-29 14:41:00,60.0,56.0,-100.00,NW,310,8.0,18.0,86,0.02,,,0.31,137.000000,,2013-05-30 00:41:00,
2013-05-29 14:52:00,60.0,56.0,-100.00,NW,310,8.0,18.0,86,0.02,,,0.31,137.000000,,2013-05-30 00:52:00,
2013-05-29 15:21:00,58.0,55.0,-100.00,East,87,3.0,14.0,90,0.41,,,0.54,59.000000,,2013-05-30 01:21:00,
2013-05-29 15:31:00,58.0,55.0,-100.00,East,87,3.0,14.0,90,0.41,,,0.54,59.000000,,2013-05-30 01:31:00,
2013-05-29 15:41:00,58.0,55.0,-100.00,East,87,3.0,14.0,90,0.41,,,0.54,59.000000,,2013-05-30 01:41:00,
2013-05-29 15:52:00,58.0,55.0,-100.00,East,87,3.0,14.0,90,0.41,,,0.54,59.000000,,2013-05-30 01:52:00,
2013-05-29 16:21:00,60.0,58.0,-100.00,WNW,300,7.0,13.0,92,0.15,,,0.62,47.000000,,2013-05-30 02:21:00,
2013-05-29 16:32:00,60.0,58.0,-100.00,WNW,300,7.0,13.0,92,0.15,,,0.62,47.000000,,2013-05-30 02:32:00,
2013-05-29 16:42:00,60.0,58.0,-100.00,WNW,300,7.0,13.0,92,0.15,,,0.62,47.000000,,2013-05-30 02:42:00,
2013-05-29 16:52:00,60.0,58.0,-100.00,WNW,300,7.0,13.0,92,0.15,,,0.62,47.000000,,2013-05-30 02:52:00,
2013-05-29 17:21:00,59.0,56.0,-100.00,ESE,109,1.0,15.0,89,0.01,,,0.63,189.000000,,2013-05-30 03:21:00,
2013-05-29 17:33:00,59.0,56.0,-100.00,ESE,109,1.0,15.0,89,0.01,,,0.63,189.000000,,2013-05-30 03:33:00,
2013-05-29 17:43:00,59.0,56.0,-100.00,ESE,109,1.0,15.0,89,0.01,,,0.63,189.000000,,2013-05-30 03:43:00,
2013-05-29 17:53:00,59.0,56.0,-100.00,ESE,109,1.0,15.0,89,0.01,,,0.63,189.000000,,2013-05-30 03:53:00,
2013-05-29 18:23:00,58.0,56.0,-100.00,East,99,10.0,15.0,94,0.07,,,0.70,41.000000,,2013-05-30 04:23:00,
2013-05-29 18:32:00,58.0,56.0,-100.00,East,99,10.0,15.0,94,0.07,,,0.70,41.000000,,2013-05-30 04:32:00,
2013-05-29 18:42:00,58.0,56.0,-100.00,East,99,10.0,15.0,94,0.07,,,0.70,41.000000,,2013-05-30 04:42:00,
2013-05-29 18:53:00,58.0,56.0,-100.00,East,99,10.0,15.0,94,0.07,,,0.70,41.000000,,2013-05-30 04:53:00,
2013-05-29 19:22:00,56.0,54.0,-100.00,ESE,105,10.0,17.0,93,0.00,,,0.70,17.000000,,2013-05-30 05:22:00,
2013-05-29 19:32:00,56.0,54.0,-100.00,ESE,105,10.0,17.0,93,0.00,,,0.70,17.000000,,2013-05-30 05:32:00,
2013-05-29 19:42:00,56.0,54.0,-100.00,ESE,105,10.0,17.0,93,0.00,,,0.70,17.000000,,2013-05-30 05:42:00,
2013-05-29 19:52:00,56.0,54.0,-100.00,ESE,105,10.0,17.0,93,0.00,,,0.70,17.000000,,2013-05-30 05:52:00,
2013-05-29 20:21:00,56.0,55.0,-100.00,ESE,108,9.0,16.0,96,0.00,,,0.67,0.000000,,2013-05-30 06:21:00,
2013-05-29 20:32:00,56.0,55.0,-100.00,ESE,108,9.0,16.0,96,0.00,,,0.67,0.000000,,2013-05-30 06:32:00,
2013-05-29 20:42:00,56.0,55.0,-100.00,ESE,108,9.0,16.0,96,0.00,,,0.67,0.000000,,2013-05-30 06:42:00,
2013-05-29 20:52:00,56.0,55.0,-100.00,ESE,108,9.0,16.0,96,0.00,,,0.67,0.000000,,2013-05-30 06:52:00,
2013-05-29 21:21:00,53.0,52.0,-100.00,ESE,111,12.0,19.0,96,0.00,,,0.66,0.000000,,2013-05-30 07:21:00,
2013-05-29 21:31:00,53.0,52.0,-100.00,ESE,111,12.0,19.0,96,0.00,,,0.66,0.000000,,2013-05-30 07:31:00,
2013-05-29 21:42:00,53.0,52.0,-100.00,ESE,111,12.0,19.0,96,0.00,,,0.66,0.000000,,2013-05-30 07:42:00,
2013-05-29 21:52:00,53.0,52.0,-100.00,ESE,111,12.0,19.0,96,0.00,,,0.66,0.000000,,2013-05-30 07:52:00,
2013-05-29 22:21:00,53.0,52.0,-100.00,ESE,107,11.0,19.0,97,0.00,,,0.66,0.000000,,2013-05-30 08:21:00,
2013-05-29 22:32:00,53.0,52.0,-100.00,ESE,107,11.0,19.0,97,0.00,,,0.66,0.000000,,2013-05-30 08:32:00,
2013-05-29 22:42:00,53.0,52.0,-100.00,ESE,107,11.0,19.0,97,0.00,,,0.66,0.000000,,2013-05-30 08:42:00,
2013-05-29 22:52:00,53.0,52.0,-100.00,ESE,107,11.0,19.0,97,0.00,,,0.66,0.000000,,2013-05-30 08:52:00,
2013-05-29 23:21:00,50.0,49.0,-100.00,ENE,78,2.0,14.0,97,0.00,,,0.66,0.000000,,2013-05-30 09:21:00,
2013-05-29 23:32:00,50.0,49.0,-100.00,ENE,78,2.0,14.0,97,0.00,,,0.66,0.000000,,2013-05-30 09:32:00,
2013-05-29 23:42:00,50.0,49.0,-100.00,ENE,78,2.0,14.0,97,0.00,,,0.66,0.000000,,2013-05-30 09:42:00,
2013-05-29 23:53:00,50.0,49.0,-100.00,ENE,78,2.0,14.0,97,0.00,,,0.66,0.000000,,2013-05-30 09:53:00,